Time;durP1;ratioP1;P1;durP2;ratioP2;P2;SDS_P1;SDS_P2;PMS_P1;PMS_P2;Temp;Humidity;BMP_temperature;BMP_pressure;BME280_temperature;BME280_humidity;BME280_pressure;Samples;Min_cycle;Max_cycle;Signal;HPM_P1;HPM_P2
2021/11/24 00:00:33;;;;;;;5.85;4.32;;;;;;;;;;5016101;28;20088;-77
2021/11/24 00:03:01;;;;;;;11.02;4.35;;;;;;;;;;5017008;28;20473;-78
2021/11/24 00:05:31;;;;;;;5.22;4.32;;;;;;;;;;5016675;28;20042;-75
2021/11/24 00:07:59;;;;;;;5.93;3.95;;;;;;;;;;5016507;28;20069;-77
2021/11/24 00:10:32;;;;;;;4.95;4.32;;;;;;;;;;5016427;28;20041;-78
2021/11/24 00:13:04;;;;;;;5.63;4.30;;;;;;;;;;5016183;28;20050;-76
2021/11/24 00:15:32;;;;;;;7.07;3.92;;;;;;;;;;4998926;28;20042;-76
2021/11/24 00:17:59;;;;;;;7.93;4.15;;;;;;;;;;5016335;28;20461;-77
2021/11/24 00:20:28;;;;;;;6.97;4.28;;;;;;;;;;5016441;28;20038;-77
2021/11/24 00:22:57;;;;;;;6.95;4.00;;;;;;;;;;4998815;28;20050;-79
2021/11/24 00:25:25;;;;;;;4.82;4.15;;;;;;;;;;4999275;28;20074;-79
2021/11/24 00:27:52;;;;;;;9.25;4.10;;;;;;;;;;5016011;28;20048;-75
2021/11/24 00:30:21;;;;;;;6.97;3.90;;;;;;;;;;5015623;28;20412;-75
2021/11/24 00:32:50;;;;;;;5.45;4.00;;;;;;;;;;5016166;28;20034;-78
2021/11/24 00:35:19;;;;;;;8.02;4.13;;;;;;;;;;5015966;28;20050;-77
2021/11/24 00:37:46;;;;;;;5.80;3.95;;;;;;;;;;5015994;28;20167;-75
2021/11/24 00:40:14;;;;;;;5.22;4.20;;;;;;;;;;5015678;28;20141;-75
2021/11/24 00:42:41;;;;;;;5.53;3.95;;;;;;;;;;5015818;28;20077;-74
2021/11/24 00:45:09;;;;;;;5.55;3.75;;;;;;;;;;5015585;28;20045;-74
2021/11/24 00:47:38;;;;;;;8.27;3.83;;;;;;;;;;5016006;28;20042;-75
2021/11/24 00:50:07;;;;;;;8.13;3.83;;;;;;;;;;4998343;28;20117;-75
2021/11/24 00:52:35;;;;;;;5.68;3.67;;;;;;;;;;5015569;28;20128;-73
2021/11/24 00:55:02;;;;;;;5.43;4.00;;;;;;;;;;4982030;28;20405;-73
2021/11/24 00:57:33;;;;;;;5.47;3.70;;;;;;;;;;5015541;28;20337;-75
2021/11/24 01:00:01;;;;;;;8.32;3.97;;;;;;;;;;5015539;28;20038;-75
2021/11/24 01:02:29;;;;;;;3.75;3.35;;;;;;;;;;5015645;28;20457;-76
2021/11/24 01:04:59;;;;;;;3.78;3.25;;;;;;;;;;5015244;28;20113;-74
2021/11/24 01:07:27;;;;;;;5.88;3.50;;;;;;;;;;5015093;28;20038;-75
2021/11/24 01:09:56;;;;;;;4.45;3.28;;;;;;;;;;4998601;28;20501;-75
2021/11/24 01:12:25;;;;;;;7.07;3.67;;;;;;;;;;5014708;28;20057;-74
2021/11/24 01:14:52;;;;;;;3.63;3.17;;;;;;;;;;4997689;28;20050;-74
2021/11/24 01:17:20;;;;;;;7.13;3.40;;;;;;;;;;5015263;28;20121;-75
2021/11/24 01:19:50;;;;;;;6.82;3.70;;;;;;;;;;5015627;28;20053;-75
2021/11/24 01:22:18;;;;;;;4.03;3.10;;;;;;;;;;5015499;28;20064;-72
2021/11/24 01:24:45;;;;;;;6.93;3.40;;;;;;;;;;5015437;28;20070;-73
2021/11/24 01:27:14;;;;;;;8.20;3.45;;;;;;;;;;5014269;28;20049;-75
2021/11/24 01:29:43;;;;;;;5.47;3.47;;;;;;;;;;5014664;28;20042;-76
2021/11/24 01:32:12;;;;;;;5.13;3.30;;;;;;;;;;4997421;28;20037;-75
2021/11/24 01:34:39;;;;;;;5.75;3.50;;;;;;;;;;4997153;28;20046;-72
2021/11/24 01:37:07;;;;;;;4.68;3.45;;;;;;;;;;5014719;28;20052;-73
2021/11/24 01:39:34;;;;;;;5.15;3.55;;;;;;;;;;4997779;28;20066;-73
2021/11/24 01:42:03;;;;;;;3.45;3.15;;;;;;;;;;5026187;28;20057;-73
2021/11/24 01:44:31;;;;;;;6.50;3.47;;;;;;;;;;5032309;28;20128;-75
2021/11/24 01:47:00;;;;;;;7.00;3.40;;;;;;;;;;5034135;28;20041;-73
2021/11/24 01:49:29;;;;;;;4.40;3.17;;;;;;;;;;5034039;28;20405;-74
2021/11/24 01:51:56;;;;;;;4.28;3.00;;;;;;;;;;5034081;28;20136;-72
2021/11/24 01:54:25;;;;;;;5.65;2.95;;;;;;;;;;5034112;28;20045;-72
2021/11/24 01:56:53;;;;;;;5.60;3.60;;;;;;;;;;5016399;28;20060;-73
2021/11/24 01:59:22;;;;;;;4.13;3.20;;;;;;;;;;5034555;28;20124;-75
2021/11/24 02:01:50;;;;;;;6.72;3.47;;;;;;;;;;5034383;28;20480;-75
2021/11/24 02:04:19;;;;;;;3.47;2.80;;;;;;;;;;5034341;28;20409;-75
2021/11/24 02:06:48;;;;;;;4.90;3.42;;;;;;;;;;5034376;28;20048;-72
2021/11/24 02:09:16;;;;;;;4.15;3.42;;;;;;;;;;5016130;28;20071;-75
2021/11/24 02:11:44;;;;;;;4.78;3.10;;;;;;;;;;5033326;28;20037;-74
2021/11/24 02:14:14;;;;;;;3.67;2.80;;;;;;;;;;5033999;28;20040;-75
2021/11/24 02:16:44;;;;;;;5.82;3.13;;;;;;;;;;5033877;28;20120;-73
2021/11/24 02:19:12;;;;;;;5.18;2.92;;;;;;;;;;5034105;28;20092;-73
2021/11/24 02:21:45;;;;;;;5.35;3.40;;;;;;;;;;5016480;28;20052;-73
2021/11/24 02:24:12;;;;;;;7.35;3.30;;;;;;;;;;5033148;28;20207;-73
2021/11/24 02:26:40;;;;;;;5.53;3.20;;;;;;;;;;5033167;28;20137;-75
2021/11/24 02:29:08;;;;;;;3.88;2.92;;;;;;;;;;5033047;28;20091;-74
2021/11/24 02:31:37;;;;;;;5.00;3.15;;;;;;;;;;5015951;28;20644;-75
2021/11/24 02:34:04;;;;;;;4.80;3.13;;;;;;;;;;5033430;28;20037;-73
2021/11/24 02:36:35;;;;;;;5.57;3.10;;;;;;;;;;5033368;28;20081;-74
2021/11/24 02:39:04;;;;;;;6.70;3.20;;;;;;;;;;5032550;28;20045;-73
2021/11/24 02:41:32;;;;;;;3.15;2.80;;;;;;;;;;5033305;28;20045;-72
2021/11/24 02:44:17;;;;;;;4.93;3.53;;;;;;;;;;5033205;28;20095;-72
2021/11/24 02:46:46;;;;;;;3.20;2.75;;;;;;;;;;5015894;28;20412;-74
2021/11/24 02:49:14;;;;;;;4.55;3.25;;;;;;;;;;5033322;28;20042;-73
2021/11/24 02:51:43;;;;;;;4.40;3.30;;;;;;;;;;5033250;28;20412;-75
2021/11/24 02:54:12;;;;;;;4.18;3.45;;;;;;;;;;5032888;28;20064;-75
2021/11/24 02:56:42;;;;;;;5.05;3.15;;;;;;;;;;5033445;28;20111;-75
2021/11/24 02:59:09;;;;;;;6.95;3.05;;;;;;;;;;5033437;28;20055;-73
2021/11/24 03:01:38;;;;;;;5.07;3.58;;;;;;;;;;5033314;28;20497;-74
2021/11/24 03:04:08;;;;;;;5.65;3.80;;;;;;;;;;5032230;28;20056;-73
2021/11/24 03:06:36;;;;;;;4.53;3.83;;;;;;;;;;5033042;28;20421;-73
2021/11/24 03:09:04;;;;;;;6.65;4.35;;;;;;;;;;5014948;28;20034;-73
2021/11/24 03:11:33;;;;;;;7.18;4.30;;;;;;;;;;5032709;28;20042;-72
2021/11/24 03:14:01;;;;;;;7.45;3.92;;;;;;;;;;5032473;28;20049;-73
2021/11/24 03:16:30;;;;;;;5.03;4.20;;;;;;;;;;5032918;28;20053;-73
2021/11/24 03:19:00;;;;;;;6.90;4.30;;;;;;;;;;5033119;28;20050;-75
2021/11/24 03:21:28;;;;;;;9.35;4.90;;;;;;;;;;5032916;28;20042;-76
2021/11/24 03:23:56;;;;;;;6.40;4.90;;;;;;;;;;5032302;28;20497;-72
2021/11/24 03:26:23;;;;;;;8.40;5.40;;;;;;;;;;5014829;28;20033;-75
2021/11/24 03:28:51;;;;;;;8.32;5.20;;;;;;;;;;5015180;28;20112;-75
2021/11/24 03:31:19;;;;;;;9.73;4.47;;;;;;;;;;5032843;28;20042;-74
2021/11/24 03:33:50;;;;;;;8.40;4.90;;;;;;;;;;5014937;28;20053;-75
2021/11/24 03:36:18;;;;;;;7.53;5.28;;;;;;;;;;5032468;28;20136;-74
2021/11/24 03:38:46;;;;;;;9.27;5.10;;;;;;;;;;5014918;28;20061;-76
2021/11/24 03:41:14;;;;;;;6.13;5.03;;;;;;;;;;5015215;28;20501;-74
2021/11/24 03:43:46;;;;;;;8.68;5.53;;;;;;;;;;5015123;28;20089;-76
2021/11/24 03:46:14;;;;;;;12.32;5.70;;;;;;;;;;5032485;28;20041;-74
2021/11/24 03:48:42;;;;;;;9.27;5.43;;;;;;;;;;5032657;28;20516;-75
2021/11/24 03:51:09;;;;;;;9.77;5.32;;;;;;;;;;5032471;28;20068;-72
2021/11/24 03:53:40;;;;;;;9.20;5.40;;;;;;;;;;4998244;28;20132;-74
2021/11/24 03:56:09;;;;;;;10.32;5.40;;;;;;;;;;5032358;28;20072;-75
2021/11/24 03:58:37;;;;;;;6.93;5.55;;;;;;;;;;5032832;28;20049;-74
2021/11/24 04:01:05;;;;;;;7.15;5.05;;;;;;;;;;5032799;28;20500;-74
2021/11/24 04:03:33;;;;;;;15.45;6.05;;;;;;;;;;5032613;28;20045;-72
2021/11/24 04:06:01;;;;;;;10.32;5.93;;;;;;;;;;5031897;28;20041;-76
2021/11/24 04:08:29;;;;;;;7.55;5.50;;;;;;;;;;5032019;28;20053;-72
2021/11/24 04:10:57;;;;;;;10.40;5.90;;;;;;;;;;5032483;28;20412;-74
2021/11/24 04:13:25;;;;;;;7.63;5.53;;;;;;;;;;5032402;28;20496;-76
2021/11/24 04:15:53;;;;;;;13.63;5.40;;;;;;;;;;5017742;28;20045;-72
2021/11/24 04:18:21;;;;;;;7.57;5.30;;;;;;;;;;5036264;28;20111;-74
2021/11/24 04:20:48;;;;;;;8.00;5.72;;;;;;;;;;5035799;28;20033;-74
2021/11/24 04:23:16;;;;;;;11.27;6.00;;;;;;;;;;5036082;28;20044;-74
2021/11/24 04:25:43;;;;;;;8.45;5.75;;;;;;;;;;5035692;28;20069;-74
2021/11/24 04:28:12;;;;;;;7.60;6.07;;;;;;;;;;5035746;28;20072;-72
2021/11/24 04:30:40;;;;;;;10.10;6.28;;;;;;;;;;5035481;28;20037;-72
2021/11/24 04:33:07;;;;;;;7.82;6.25;;;;;;;;;;5035867;28;20048;-76
2021/11/24 04:35:36;;;;;;;12.38;6.47;;;;;;;;;;5035370;28;20048;-75
2021/11/24 04:38:04;;;;;;;9.98;7.00;;;;;;;;;;5035838;28;20065;-76
2021/11/24 04:40:32;;;;;;;15.43;6.93;;;;;;;;;;5036064;28;20407;-76
2021/11/24 04:43:05;;;;;;;10.27;6.82;;;;;;;;;;5036010;28;20477;-72
2021/11/24 04:45:33;;;;;;;12.20;7.13;;;;;;;;;;5035653;28;20064;-75
2021/11/24 04:48:01;;;;;;;13.95;6.82;;;;;;;;;;5035473;28;20045;-74
2021/11/24 04:50:30;;;;;;;10.38;6.57;;;;;;;;;;5017689;28;20037;-74
2021/11/24 04:52:58;;;;;;;10.00;6.97;;;;;;;;;;5035369;28;20049;-75
2021/11/24 04:55:26;;;;;;;12.13;7.22;;;;;;;;;;5035807;28;20033;-75
2021/11/24 04:57:53;;;;;;;9.13;6.57;;;;;;;;;;5033752;28;20465;-73
2021/11/24 05:00:22;;;;;;;10.82;7.45;;;;;;;;;;5001298;28;20136;-74
2021/11/24 05:02:51;;;;;;;13.50;8.25;;;;;;;;;;5034789;28;20128;-76
2021/11/24 05:05:22;;;;;;;11.95;7.35;;;;;;;;;;5034342;28;20056;-74
2021/11/24 05:07:49;;;;;;;11.27;7.38;;;;;;;;;;5035509;28;20450;-74
2021/11/24 05:10:17;;;;;;;9.38;7.38;;;;;;;;;;5035214;28;20041;-74
2021/11/24 05:12:45;;;;;;;10.38;7.25;;;;;;;;;;5034634;28;20385;-75
2021/11/24 05:15:19;;;;;;;10.65;7.70;;;;;;;;;;5016646;28;20041;-75
2021/11/24 05:17:52;;;;;;;10.82;7.25;;;;;;;;;;5035334;28;20421;-72
2021/11/24 05:20:23;;;;;;;11.23;7.55;;;;;;;;;;5034491;28;20120;-76
2021/11/24 05:22:53;;;;;;;10.30;6.85;;;;;;;;;;5035042;28;20050;-74
2021/11/24 05:25:21;;;;;;;10.80;7.13;;;;;;;;;;5034225;28;20042;-76
2021/11/24 05:27:49;;;;;;;9.43;6.38;;;;;;;;;;5033898;28;20559;-74
2021/11/24 05:30:18;;;;;;;9.80;6.97;;;;;;;;;;5034887;28;20069;-74
2021/11/24 05:32:50;;;;;;;7.70;6.00;;;;;;;;;;5035131;28;20558;-74
2021/11/24 05:35:23;;;;;;;8.55;6.38;;;;;;;;;;5034611;28;20095;-76
2021/11/24 05:37:52;;;;;;;12.27;6.50;;;;;;;;;;5034750;28;20069;-78
2021/11/24 05:40:24;;;;;;;8.18;5.78;;;;;;;;;;5017094;28;20755;-74
2021/11/24 05:42:51;;;;;;;8.45;5.72;;;;;;;;;;5034572;28;20048;-72
2021/11/24 05:45:44;;;;;;;9.30;6.13;;;;;;;;;;5034247;28;20049;-76
2021/11/24 05:48:09;;;;;;;6.93;5.18;;;;;;;;;;5033765;28;20046;-75
2021/11/24 05:50:40;;;;;;;;;;;;;;;;;;5034462;28;20045;-76
2021/11/24 05:53:11;;;;;;;9.02;5.50;;;;;;;;;;5034266;28;19921;-76
2021/11/24 05:55:39;;;;;;;8.40;5.13;;;;;;;;;;5034467;28;20112;-74
2021/11/24 05:58:07;;;;;;;9.18;5.10;;;;;;;;;;5017055;28;20064;-74
2021/11/24 06:00:35;;;;;;;8.90;5.63;;;;;;;;;;5034209;28;20116;-74
2021/11/24 06:03:03;;;;;;;7.28;4.97;;;;;;;;;;5016145;28;20049;-75
2021/11/24 06:05:31;;;;;;;6.85;4.97;;;;;;;;;;5033723;28;20054;-75
2021/11/24 06:07:59;;;;;;;8.05;4.88;;;;;;;;;;5034058;28;20033;-72
2021/11/24 06:10:27;;;;;;;8.27;5.15;;;;;;;;;;5033902;28;20362;-72
2021/11/24 06:12:55;;;;;;;7.65;5.10;;;;;;;;;;5033896;28;20053;-73
2021/11/24 06:15:23;;;;;;;7.30;5.03;;;;;;;;;;5034213;28;20037;-72
2021/11/24 06:17:51;;;;;;;7.80;5.13;;;;;;;;;;5033444;28;20045;-76
2021/11/24 06:20:18;;;;;;;7.68;6.32;;;;;;;;;;5034002;28;20424;-75
2021/11/24 06:22:47;;;;;;;10.15;5.50;;;;;;;;;;5033787;28;20132;-70
2021/11/24 06:25:15;;;;;;;6.90;5.43;;;;;;;;;;5033312;28;20041;-71
2021/11/24 06:27:43;;;;;;;11.30;5.60;;;;;;;;;;5033622;28;20407;-77
2021/11/24 06:30:15;;;;;;;12.48;5.68;;;;;;;;;;5032880;28;20042;-70
2021/11/24 06:32:43;;;;;;;7.25;5.22;;;;;;;;;;5031490;28;20065;-71
2021/11/24 06:35:10;;;;;;;11.25;5.30;;;;;;;;;;5033515;28;20433;-76
2021/11/24 06:37:38;;;;;;;7.10;4.65;;;;;;;;;;5015631;28;20063;-70
2021/11/24 06:40:07;;;;;;;7.90;4.90;;;;;;;;;;5033198;28;20126;-75
2021/11/24 06:42:34;;;;;;;10.52;4.60;;;;;;;;;;5015219;28;20041;-72
2021/11/24 06:45:03;;;;;;;9.18;4.53;;;;;;;;;;5033156;28;20057;-73
2021/11/24 06:47:32;;;;;;;11.82;4.25;;;;;;;;;;5032734;28;20045;-73
2021/11/24 06:50:00;;;;;;;13.32;4.40;;;;;;;;;;5033090;28;20124;-69
2021/11/24 06:52:28;;;;;;;6.97;4.07;;;;;;;;;;5032861;28;20048;-73
2021/11/24 06:54:58;;;;;;;10.55;4.00;;;;;;;;;;5031965;28;20416;-73
2021/11/24 06:57:26;;;;;;;4.88;3.85;;;;;;;;;;5032788;28;20071;-69
2021/11/24 06:59:54;;;;;;;6.55;3.90;;;;;;;;;;5031736;28;20045;-69
2021/11/24 07:02:21;;;;;;;7.40;3.85;;;;;;;;;;5032657;28;20045;-72
2021/11/24 07:04:52;;;;;;;10.80;4.38;;;;;;;;;;5032879;28;20045;-69
2021/11/24 07:07:20;;;;;;;12.20;6.78;;;;;;;;;;5032454;28;20489;-69
2021/11/24 07:09:49;;;;;;;11.48;6.50;;;;;;;;;;5032610;28;20116;-69
2021/11/24 07:12:18;;;;;;;10.35;5.55;;;;;;;;;;5032291;28;20046;-70
2021/11/24 07:14:47;;;;;;;10.40;5.47;;;;;;;;;;5032158;28;20116;-69
2021/11/24 07:17:14;;;;;;;7.18;4.80;;;;;;;;;;5032602;28;20053;-70
2021/11/24 07:19:44;;;;;;;8.15;4.97;;;;;;;;;;5033126;28;20048;-71
2021/11/24 07:22:12;;;;;;;7.68;4.68;;;;;;;;;;5033217;28;20053;-73
2021/11/24 07:24:40;;;;;;;10.35;5.07;;;;;;;;;;5032545;28;20052;-74
2021/11/24 07:27:08;;;;;;;17.88;11.95;;;;;;;;;;5032868;28;20052;-73
2021/11/24 07:29:49;;;;;;;18.20;8.30;;;;;;;;;;5032410;28;20121;-70
2021/11/24 07:32:17;;;;;;;9.98;4.53;;;;;;;;;;5015871;28;20092;-69
2021/11/24 07:34:46;;;;;;;10.35;4.55;;;;;;;;;;5032419;28;20049;-70
2021/11/24 07:37:13;;;;;;;9.35;4.07;;;;;;;;;;5032429;28;20049;-69
2021/11/24 07:39:41;;;;;;;7.75;4.40;;;;;;;;;;5032319;28;20049;-69
2021/11/24 07:42:10;;;;;;;9.88;6.50;;;;;;;;;;5032069;28;20045;-73
2021/11/24 07:44:38;;;;;;;10.45;5.45;;;;;;;;;;5037471;28;20050;-70
2021/11/24 07:47:05;;;;;;;11.82;6.68;;;;;;;;;;5052327;28;20064;-73
2021/11/24 07:49:34;;;;;;;16.48;6.45;;;;;;;;;;5053655;28;20041;-74
2021/11/24 07:52:01;;;;;;;12.90;6.65;;;;;;;;;;5056250;28;20116;-73
2021/11/24 07:54:29;;;;;;;12.15;6.60;;;;;;;;;;5056215;28;20413;-71
2021/11/24 07:56:58;;;;;;;8.18;4.28;;;;;;;;;;5056691;28;20049;-71
2021/11/24 07:59:26;;;;;;;8.48;4.85;;;;;;;;;;5056443;28;20045;-75
2021/11/24 08:01:55;;;;;;;9.98;4.97;;;;;;;;;;5055389;28;20049;-71
2021/11/24 08:04:22;;;;;;;9.52;5.60;;;;;;;;;;5037544;28;20045;-70
2021/11/24 08:06:50;;;;;;;12.73;4.97;;;;;;;;;;5055674;28;20060;-70
2021/11/24 08:09:18;;;;;;;9.27;4.80;;;;;;;;;;5055686;28;20033;-71
2021/11/24 08:11:45;;;;;;;7.93;4.47;;;;;;;;;;5122657;22;20049;-75
2021/11/24 08:14:13;;;;;;;11.77;5.35;;;;;;;;;;5008470;28;20041;-73
2021/11/24 08:16:41;;;;;;;11.73;5.55;;;;;;;;;;4997413;28;20508;-72
2021/11/24 08:19:08;;;;;;;14.60;5.40;;;;;;;;;;4996867;28;20045;-79
2021/11/24 08:21:36;;;;;;;7.57;5.22;;;;;;;;;;5015423;28;20034;-75
2021/11/24 08:24:04;;;;;;;10.98;5.03;;;;;;;;;;5015959;28;20390;-72
2021/11/24 08:26:32;;;;;;;8.88;3.55;;;;;;;;;;5015907;28;20066;-76
2021/11/24 08:29:00;;;;;;;7.95;3.40;;;;;;;;;;5015925;28;20065;-74
2021/11/24 08:31:28;;;;;;;5.60;3.33;;;;;;;;;;4998284;28;20073;-80
2021/11/24 08:33:55;;;;;;;10.90;3.75;;;;;;;;;;5016552;28;20049;-72
2021/11/24 08:36:23;;;;;;;9.50;3.60;;;;;;;;;;4998491;28;20367;-72
2021/11/24 08:38:53;;;;;;;10.05;4.32;;;;;;;;;;5016295;28;20042;-78
2021/11/24 08:41:41;;;;;;;9.50;4.55;;;;;;;;;;5016161;28;20033;-74
2021/11/24 08:44:09;;;;;;;9.57;4.45;;;;;;;;;;5016078;28;20460;-79
2021/11/24 08:46:37;;;;;;;12.25;4.93;;;;;;;;;;5016191;28;20049;-72
2021/11/24 08:49:05;;;;;;;8.85;3.90;;;;;;;;;;4982364;28;20497;-75
2021/11/24 08:51:34;;;;;;;12.57;4.60;;;;;;;;;;4998433;28;20405;-79
2021/11/24 08:54:01;;;;;;;6.55;4.22;;;;;;;;;;4998355;28;20125;-72
2021/11/24 08:56:33;;;;;;;8.65;4.22;;;;;;;;;;5015823;28;20034;-73
2021/11/24 08:59:04;;;;;;;8.65;4.35;;;;;;;;;;5015616;28;20489;-71
2021/11/24 09:01:32;;;;;;;9.10;4.15;;;;;;;;;;4995791;28;20046;-75
2021/11/24 09:04:00;;;;;;;13.63;5.60;;;;;;;;;;4997931;28;20045;-79
2021/11/24 09:06:28;;;;;;;11.25;4.45;;;;;;;;;;5015592;28;20037;-71
2021/11/24 09:08:56;;;;;;;13.27;6.13;;;;;;;;;;4997751;28;20083;-74
2021/11/24 09:11:23;;;;;;;9.05;5.03;;;;;;;;;;4998328;28;20600;-76
2021/11/24 09:13:52;;;;;;;8.73;4.68;;;;;;;;;;5017207;28;20444;-75
2021/11/24 09:16:20;;;;;;;10.05;5.32;;;;;;;;;;5017296;28;20404;-79
2021/11/24 09:18:48;;;;;;;12.27;5.50;;;;;;;;;;5035087;28;20045;-74
2021/11/24 09:21:16;;;;;;;9.88;8.25;;;;;;;;;;5034738;28;20504;-72
2021/11/24 09:23:45;;;;;;;10.50;5.50;;;;;;;;;;5034588;28;20044;-74
2021/11/24 09:26:20;;;;;;;12.70;7.50;;;;;;;;;;5016689;28;20045;-78
2021/11/24 09:28:48;;;;;;;5.90;4.22;;;;;;;;;;5035039;28;20042;-79
2021/11/24 09:31:17;;;;;;;8.20;3.75;;;;;;;;;;5016201;28;20489;-74
2021/11/24 09:33:46;;;;;;;9.20;6.20;;;;;;;;;;5033073;28;20037;-74
2021/11/24 09:36:13;;;;;;;9.20;4.00;;;;;;;;;;5034613;28;20051;-74
2021/11/24 09:38:41;;;;;;;6.95;3.35;;;;;;;;;;5034308;28;20041;-74
2021/11/24 09:41:10;;;;;;;6.15;3.30;;;;;;;;;;5033776;28;20080;-73
2021/11/24 09:43:40;;;;;;;6.65;4.38;;;;;;;;;;5034523;28;20041;-72
2021/11/24 09:46:09;;;;;;;6.53;3.13;;;;;;;;;;5034196;28;20048;-76
2021/11/24 09:48:37;;;;;;;5.55;3.28;;;;;;;;;;5016817;28;20498;-75
2021/11/24 09:51:05;;;;;;;8.15;3.17;;;;;;;;;;5034941;28;20485;-75
2021/11/24 09:53:32;;;;;;;6.78;3.15;;;;;;;;;;5017045;28;20556;-79
2021/11/24 09:56:01;;;;;;;9.13;3.25;;;;;;;;;;5034416;28;20033;-72
2021/11/24 09:58:28;;;;;;;5.82;3.28;;;;;;;;;;5034094;28;20404;-74
2021/11/24 10:00:58;;;;;;;10.10;4.22;;;;;;;;;;5034872;28;20037;-79
2021/11/24 10:03:26;;;;;;;9.75;3.60;;;;;;;;;;5035478;28;20097;-79
2021/11/24 10:05:55;;;;;;;5.63;3.40;;;;;;;;;;5033948;28;20051;-76
2021/11/24 10:08:44;;;;;;;6.05;3.40;;;;;;;;;;5033657;28;20059;-79
2021/11/24 10:11:11;;;;;;;6.95;3.53;;;;;;;;;;5033436;28;20034;-75
2021/11/24 10:13:39;;;;;;;6.85;3.20;;;;;;;;;;5033071;28;20108;-72
2021/11/24 10:16:19;;;;;;;5.07;3.10;;;;;;;;;;5033594;28;20060;-79
2021/11/24 10:18:55;;;;;;;5.93;3.25;;;;;;;;;;5033916;28;20095;-73
2021/11/24 10:21:23;;;;;;;5.82;3.17;;;;;;;;;;5015662;28;20128;-80
2021/11/24 10:23:53;;;;;;;5.97;3.42;;;;;;;;;;5033073;28;20121;-75
2021/11/24 10:26:53;;;;;;;6.10;3.72;;;;;;;;;;5015814;28;20048;-75
2021/11/24 10:29:41;;;;;;;8.52;3.58;;;;;;;;;;4993903;28;20060;-77
2021/11/24 10:32:11;;;;;;;7.13;4.20;;;;;;;;;;5015713;28;20087;-80
2021/11/24 10:34:39;;;;;;;6.80;3.80;;;;;;;;;;5015496;28;20121;-73
2021/11/24 10:37:08;;;;;;;5.53;3.85;;;;;;;;;;5033066;28;20041;-73
2021/11/24 10:39:40;;;;;;;6.20;3.90;;;;;;;;;;5032886;28;20037;-80
2021/11/24 10:42:07;;;;;;;4.53;3.40;;;;;;;;;;5032604;28;20048;-73
2021/11/24 10:44:35;;;;;;;7.60;4.05;;;;;;;;;;5032928;28;20568;-76
2021/11/24 10:47:07;;;;;;;6.68;3.58;;;;;;;;;;5015038;28;20053;-75
2021/11/24 10:49:35;;;;;;;5.97;3.38;;;;;;;;;;5033067;28;20053;-72
2021/11/24 10:52:12;;;;;;;7.68;3.20;;;;;;;;;;5032690;28;20033;-75
2021/11/24 10:54:40;;;;;;;6.38;3.10;;;;;;;;;;5032756;28;20060;-74
2021/11/24 10:57:08;;;;;;;7.18;3.47;;;;;;;;;;5015462;28;20037;-72
2021/11/24 10:59:38;;;;;;;4.35;3.00;;;;;;;;;;5033065;28;20038;-75
2021/11/24 11:02:17;;;;;;;6.45;3.30;;;;;;;;;;5015132;28;20056;-72
2021/11/24 11:04:54;;;;;;;3.40;2.67;;;;;;;;;;5032720;28;20049;-74
2021/11/24 11:07:22;;;;;;;5.47;3.00;;;;;;;;;;5032091;28;20050;-74
2021/11/24 11:09:58;;;;;;;6.30;2.65;;;;;;;;;;5015077;28;20128;-75
2021/11/24 11:12:30;;;;;;;6.15;2.83;;;;;;;;;;5011349;28;20133;-73
2021/11/24 11:15:16;;;;;;;5.20;3.15;;;;;;;;;;5012397;28;20073;-73
2021/11/24 11:17:58;;;;;;;3.92;2.90;;;;;;;;;;5012534;28;20046;-74
2021/11/24 11:20:27;;;;;;;5.38;2.90;;;;;;;;;;5011347;28;20399;-74
2021/11/24 11:23:01;;;;;;;5.20;2.38;;;;;;;;;;5012309;28;20037;-72
2021/11/24 11:25:29;;;;;;;5.78;2.90;;;;;;;;;;5011462;28;20048;-76
2021/11/24 11:27:57;;;;;;;4.57;2.30;;;;;;;;;;5011218;28;20398;-72
2021/11/24 11:30:25;;;;;;;7.13;2.95;;;;;;;;;;5011154;28;20034;-79
2021/11/24 11:32:52;;;;;;;7.75;2.70;;;;;;;;;;5012775;28;20038;-79
2021/11/24 11:35:20;;;;;;;6.35;2.55;;;;;;;;;;5011093;28;20061;-72
2021/11/24 11:38:08;;;;;;;6.32;2.70;;;;;;;;;;5012803;28;20050;-74
2021/11/24 11:40:37;;;;;;;4.22;2.50;;;;;;;;;;5012951;28;20054;-76
2021/11/24 11:43:07;;;;;;;6.60;2.78;;;;;;;;;;5010891;28;20509;-71
2021/11/24 11:45:53;;;;;;;2.50;2.10;;;;;;;;;;5012695;28;20084;-79
2021/11/24 11:48:38;;;;;;;5.88;2.80;;;;;;;;;;5012592;28;20137;-75
2021/11/24 11:51:07;;;;;;;3.28;2.20;;;;;;;;;;5012804;28;20057;-75
2021/11/24 11:53:52;;;;;;;5.57;2.53;;;;;;;;;;5012256;28;20069;-79
2021/11/24 11:56:24;;;;;;;5.47;2.17;;;;;;;;;;5009244;28;20141;-72
2021/11/24 11:58:52;;;;;;;5.95;2.20;;;;;;;;;;5012092;28;20050;-74
2021/11/24 12:01:27;;;;;;;5.55;2.10;;;;;;;;;;5012158;28;20049;-75
2021/11/24 12:04:17;;;;;;;7.60;2.60;;;;;;;;;;5012379;28;20129;-73
2021/11/24 12:06:47;;;;;;;5.50;2.78;;;;;;;;;;5012030;28;20509;-79
2021/11/24 12:09:30;;;;;;;5.97;2.63;;;;;;;;;;5011020;28;20145;-71
2021/11/24 12:12:04;;;;;;;4.43;2.85;;;;;;;;;;5018645;28;20484;-75
2021/11/24 12:14:53;;;;;;;6.65;2.60;;;;;;;;;;5031628;28;20124;-75
2021/11/24 12:17:44;;;;;;;9.68;2.72;;;;;;;;;;5031839;28;20053;-75
2021/11/24 12:20:12;;;;;;;5.38;2.90;;;;;;;;;;5014009;28;20045;-73
2021/11/24 12:22:49;;;;;;;6.60;2.90;;;;;;;;;;5014209;28;20034;-71
2021/11/24 12:27:53;;;;;;;7.47;2.92;;;;;;;;;;5031722;28;20117;-72
2021/11/24 12:33:15;;;;;;;5.45;2.53;;;;;;;;;;5014065;28;20073;-75
2021/11/24 12:36:01;;;;;;;6.35;2.92;;;;;;;;;;5032375;28;20128;-71
2021/11/24 12:38:29;;;;;;;4.60;2.42;;;;;;;;;;5035525;28;20125;-71
2021/11/24 12:40:58;;;;;;;6.22;2.67;;;;;;;;;;5035617;28;20507;-75
2021/11/24 12:43:28;;;;;;;6.15;1.90;;;;;;;;;;5017862;28;20107;-75
2021/11/24 12:46:02;;;;;;;3.95;2.55;;;;;;;;;;5035430;28;20041;-78
2021/11/24 12:48:43;;;;;;;3.67;2.45;;;;;;;;;;4997092;28;20038;-71
2021/11/24 12:51:31;;;;;;;4.22;2.30;;;;;;;;;;5006108;28;20121;-75
2021/11/24 12:53:58;;;;;;;5.75;2.25;;;;;;;;;;5005837;28;20486;-71
2021/11/24 12:56:27;;;;;;;6.22;2.55;;;;;;;;;;5005052;28;20096;-79
2021/11/24 12:58:57;;;;;;;4.38;2.00;;;;;;;;;;5004144;28;20057;-78
2021/11/24 13:01:26;;;;;;;6.22;2.67;;;;;;;;;;5003258;28;20038;-71
2021/11/24 13:03:59;;;;;;;3.00;2.45;;;;;;;;;;4985927;28;20494;-78
2021/11/24 13:06:27;;;;;;;5.38;2.65;;;;;;;;;;5003403;28;20230;-72
2021/11/24 13:09:10;;;;;;;7.70;2.85;;;;;;;;;;4988872;28;20088;-72
2021/11/24 13:11:57;;;;;;;5.72;2.50;;;;;;;;;;5004970;28;20077;-74
2021/11/24 13:14:32;;;;;;;5.88;2.80;;;;;;;;;;5005128;28;20041;-72
2021/11/24 13:17:11;;;;;;;4.20;2.97;;;;;;;;;;5011225;28;20452;-71
2021/11/24 13:19:45;;;;;;;5.20;3.03;;;;;;;;;;5012135;28;20050;-79
2021/11/24 13:22:14;;;;;;;7.03;2.90;;;;;;;;;;5014999;28;20052;-72
2021/11/24 13:24:46;;;;;;;5.65;2.75;;;;;;;;;;5015141;28;20198;-71
2021/11/24 13:27:13;;;;;;;5.45;2.70;;;;;;;;;;4997217;28;20390;-75
2021/11/24 13:29:41;;;;;;;6.75;2.97;;;;;;;;;;4997527;28;20046;-79
2021/11/24 13:32:13;;;;;;;4.03;2.60;;;;;;;;;;5014458;28;20052;-79
2021/11/24 13:34:41;;;;;;;;;;;;;;;;;;5014912;28;20042;-71
2021/11/24 13:37:09;;;;;;;3.92;2.15;;;;;;;;;;5015196;28;19937;-70
2021/11/24 13:39:38;;;;;;;6.15;2.90;;;;;;;;;;5015144;28;20049;-72
2021/11/24 13:42:08;;;;;;;3.40;2.80;;;;;;;;;;4995937;28;20050;-75
2021/11/24 13:44:50;;;;;;;5.78;2.40;;;;;;;;;;4987719;28;20065;-72
2021/11/24 13:47:28;;;;;;;4.65;2.53;;;;;;;;;;4985689;28;20560;-74
2021/11/24 13:49:57;;;;;;;5.18;2.42;;;;;;;;;;5004867;28;20038;-79
2021/11/24 13:52:37;;;;;;;3.78;2.00;;;;;;;;;;5004760;28;20397;-70
2021/11/24 13:55:05;;;;;;;4.90;2.40;;;;;;;;;;4999923;28;20034;-75
2021/11/24 13:57:33;;;;;;;7.13;2.70;;;;;;;;;;4989066;28;20047;-75
2021/11/24 14:00:10;;;;;;;6.35;2.40;;;;;;;;;;4997285;28;20026;-72
2021/11/24 14:02:42;;;;;;;7.13;2.42;;;;;;;;;;5003957;28;20135;-75
2021/11/24 14:05:11;;;;;;;5.82;2.50;;;;;;;;;;5003143;28;20042;-75
2021/11/24 14:07:39;;;;;;;11.93;2.45;;;;;;;;;;4988030;28;20038;-74
2021/11/24 14:10:20;;;;;;;5.63;2.20;;;;;;;;;;5004945;28;20034;-74
2021/11/24 14:12:52;;;;;;;6.57;2.33;;;;;;;;;;4987426;28;20593;-73
2021/11/24 14:15:20;;;;;;;6.38;2.45;;;;;;;;;;5005456;28;20119;-80
2021/11/24 14:17:56;;;;;;;5.30;2.35;;;;;;;;;;4985379;28;20045;-78
2021/11/24 14:20:26;;;;;;;7.35;2.28;;;;;;;;;;5002099;28;20044;-76
2021/11/24 14:23:07;;;;;;;8.00;2.50;;;;;;;;;;5002754;28;20044;-76
2021/11/24 14:25:37;;;;;;;3.75;2.28;;;;;;;;;;4985115;28;20121;-78
2021/11/24 14:28:07;;;;;;;5.15;2.40;;;;;;;;;;5002303;28;20177;-80
2021/11/24 14:30:38;;;;;;;6.50;2.23;;;;;;;;;;5005273;28;20113;-72
2021/11/24 14:33:05;;;;;;;9.45;5.40;;;;;;;;;;5007119;28;20269;-74
2021/11/24 14:35:34;;;;;;;6.75;2.10;;;;;;;;;;5004435;28;20062;-75
2021/11/24 14:38:03;;;;;;;9.00;2.47;;;;;;;;;;5002994;28;20037;-80
2021/11/24 14:40:35;;;;;;;4.40;1.92;;;;;;;;;;4986391;28;20386;-80
2021/11/24 14:43:04;;;;;;;7.53;2.40;;;;;;;;;;4980679;28;20046;-76
2021/11/24 14:45:32;;;;;;;6.30;2.17;;;;;;;;;;5001387;28;20043;-80
2021/11/24 14:48:01;;;;;;;5.22;1.92;;;;;;;;;;4986509;28;20417;-76
2021/11/24 14:50:29;;;;;;;6.38;2.03;;;;;;;;;;4984557;28;20108;-73
2021/11/24 14:52:58;;;;;;;7.43;2.42;;;;;;;;;;5001349;28;20034;-73
2021/11/24 14:55:46;;;;;;;7.05;1.75;;;;;;;;;;4999890;28;20046;-78
2021/11/24 14:58:14;;;;;;;8.85;2.35;;;;;;;;;;5000477;28;20049;-72
2021/11/24 15:00:41;;;;;;;5.65;1.85;;;;;;;;;;4993680;28;20042;-79
2021/11/24 15:03:22;;;;;;;8.85;2.95;;;;;;;;;;4990929;28;20053;-79